createdAt,value
2023-04-16T00:00:19.466Z,4.15
2023-04-16T00:01:19.462Z,4.18
2023-04-16T00:02:19.520Z,4.12
2023-04-16T00:03:19.640Z,4.05
2023-04-16T00:04:19.678Z,4.12
2023-04-16T00:05:19.395Z,4.12
2023-04-16T00:06:19.434Z,4.12
2023-04-16T00:07:19.380Z,4.11
2023-04-16T00:08:19.365Z,4.04
2023-04-16T00:09:19.471Z,4.09
2023-04-16T00:10:19.364Z,4.04
2023-04-16T00:11:19.332Z,4.05
2023-04-16T00:12:19.357Z,4.00
2023-04-16T00:13:27.012Z,3.97
2023-04-16T00:14:19.403Z,3.91
2023-04-16T00:15:19.287Z,3.86
2023-04-16T00:16:19.382Z,3.80
2023-04-16T00:17:19.356Z,3.86
2023-04-16T00:18:19.286Z,3.84
2023-04-16T00:19:26.942Z,3.79
2023-04-16T00:20:19.257Z,3.75
2023-04-16T00:21:26.895Z,3.75
2023-04-16T00:22:19.252Z,3.75
2023-04-16T00:23:19.214Z,3.73
2023-04-16T00:24:28.153Z,3.75
2023-04-16T00:25:26.865Z,3.72
2023-04-16T00:26:26.832Z,3.65
2023-04-16T00:27:26.832Z,3.75
2023-04-16T00:28:19.179Z,3.72
2023-04-16T00:29:26.812Z,3.70
2023-04-16T00:30:26.812Z,3.69
2023-04-16T00:31:19.248Z,3.76
2023-04-16T00:32:19.149Z,3.65
2023-04-16T00:33:19.142Z,3.70
2023-04-16T00:34:19.076Z,3.72
2023-04-16T00:35:19.097Z,3.69
2023-04-16T00:36:19.077Z,3.72
2023-04-16T00:37:19.061Z,3.62
2023-04-16T00:38:19.044Z,3.76
2023-04-16T00:39:19.054Z,3.58
2023-04-16T00:40:19.018Z,3.73
2023-04-16T00:41:19.038Z,3.65
2023-04-16T00:42:18.996Z,3.78
2023-04-16T00:43:18.991Z,3.61
2023-04-16T00:44:19.007Z,3.70
2023-04-16T00:45:18.988Z,3.60
2023-04-16T00:46:19.008Z,3.66
2023-04-16T00:47:18.998Z,3.68
2023-04-16T00:48:18.940Z,3.61
2023-04-16T00:49:18.911Z,3.65
2023-04-16T00:50:18.897Z,3.61
2023-04-16T00:51:18.910Z,3.60
2023-04-16T00:52:18.880Z,3.57
2023-04-16T00:53:18.881Z,3.68
2023-04-16T00:54:18.866Z,3.72
2023-04-16T00:55:18.905Z,3.57
2023-04-16T00:56:18.858Z,3.62
2023-04-16T00:57:18.831Z,3.57
2023-04-16T00:58:18.826Z,3.68
2023-04-16T00:59:18.855Z,3.58
2023-04-16T01:00:18.814Z,3.57
2023-04-16T01:01:18.858Z,3.58
2023-04-16T01:02:18.816Z,3.43
2023-04-16T01:03:18.949Z,3.47
2023-04-16T01:04:19.622Z,3.52
2023-04-16T01:05:18.813Z,3.52
2023-04-16T01:06:18.702Z,3.42
2023-04-16T01:07:18.703Z,3.43
2023-04-16T01:08:18.783Z,3.39
2023-04-16T01:09:18.718Z,3.33
2023-04-16T01:10:18.663Z,3.23
2023-04-16T01:11:18.679Z,3.13
2023-04-16T01:12:18.695Z,3.08
2023-04-16T01:13:18.630Z,3.10
2023-04-16T01:14:18.635Z,3.14
2023-04-16T01:15:18.605Z,3.10
2023-04-16T01:16:18.657Z,3.14
2023-04-16T01:17:18.582Z,3.10
2023-04-16T01:18:18.640Z,3.17
2023-04-16T01:19:18.578Z,3.18
2023-04-16T01:20:18.571Z,3.15
2023-04-16T01:21:18.565Z,3.17
2023-04-16T01:22:19.138Z,3.24
2023-04-16T01:23:18.548Z,3.15
2023-04-16T01:24:18.586Z,3.23
2023-04-16T01:25:18.524Z,3.11
2023-04-16T01:26:18.502Z,3.10
2023-04-16T01:27:18.473Z,2.97
2023-04-16T01:28:18.475Z,2.97
2023-04-16T01:29:18.480Z,2.99
2023-04-16T01:30:18.550Z,2.87
2023-04-16T01:31:18.473Z,3.03
2023-04-16T01:32:18.443Z,2.81
2023-04-16T01:33:18.396Z,2.82
2023-04-16T01:34:18.414Z,2.87
2023-04-16T01:35:18.402Z,2.84
2023-04-16T01:36:18.452Z,2.81
2023-04-16T01:37:18.375Z,2.84
2023-04-16T01:38:18.348Z,2.67
2023-04-16T01:39:18.338Z,2.72
2023-04-16T01:40:18.340Z,2.75
2023-04-16T01:41:18.346Z,2.74
2023-04-16T01:42:18.370Z,2.74
2023-04-16T01:43:18.317Z,2.77
2023-04-16T01:44:18.297Z,2.66
2023-04-16T01:45:18.264Z,2.69
2023-04-16T01:46:18.387Z,2.67
2023-04-16T01:47:18.337Z,2.63
2023-04-16T01:48:18.287Z,2.64
2023-04-16T01:49:18.253Z,2.53
2023-04-16T01:50:18.215Z,2.54
2023-04-16T01:51:18.211Z,2.57
2023-04-16T01:52:18.212Z,2.52
2023-04-16T01:53:18.219Z,2.52
2023-04-16T01:54:18.180Z,2.43
2023-04-16T01:55:18.150Z,2.46
2023-04-16T01:56:18.181Z,2.43
2023-04-16T01:57:18.142Z,2.42
2023-04-16T01:58:18.121Z,2.35
2023-04-16T01:59:18.110Z,2.35
2023-04-16T02:00:18.172Z,2.24
2023-04-16T02:01:18.158Z,2.30
2023-04-16T02:02:18.187Z,2.23
2023-04-16T02:03:18.189Z,2.28
2023-04-16T02:04:18.056Z,2.21
2023-04-16T02:05:18.051Z,2.20
2023-04-16T02:06:18.110Z,2.25
2023-04-16T02:07:18.084Z,2.18
2023-04-16T02:08:18.175Z,2.21
2023-04-16T02:09:18.030Z,2.17
2023-04-16T02:10:18.012Z,2.23
2023-04-16T02:11:17.965Z,2.14
2023-04-16T02:12:17.956Z,2.17
2023-04-16T02:13:17.957Z,2.18
2023-04-16T02:14:17.965Z,2.14
2023-04-16T02:15:17.920Z,2.09
2023-04-16T02:16:17.926Z,2.06
2023-04-16T02:17:17.927Z,2.09
2023-04-16T02:18:17.920Z,2.09
2023-04-16T02:19:17.874Z,2.05
2023-04-16T02:20:17.888Z,2.09
2023-04-16T02:21:17.851Z,2.07
2023-04-16T02:22:17.845Z,2.00
2023-04-16T02:23:17.822Z,2.00
2023-04-16T02:24:17.832Z,1.86
2023-04-16T02:25:17.841Z,1.88
2023-04-16T02:26:17.795Z,1.87
2023-04-16T02:27:17.785Z,1.81
2023-04-16T02:28:17.791Z,1.95
2023-04-16T02:29:17.758Z,1.83
2023-04-16T02:30:17.772Z,1.90
2023-04-16T02:31:17.786Z,1.86
2023-04-16T02:32:17.729Z,1.77
2023-04-16T02:33:17.742Z,1.84
2023-04-16T02:34:17.702Z,1.76
2023-04-16T02:35:17.692Z,1.76
2023-04-16T02:36:17.694Z,1.83
2023-04-16T02:37:17.710Z,1.76
2023-04-16T02:38:17.661Z,1.79
2023-04-16T02:39:17.644Z,1.66
2023-04-16T02:40:17.654Z,1.68
2023-04-16T02:41:17.957Z,1.63
2023-04-16T02:42:17.622Z,1.59
2023-04-16T02:43:17.594Z,1.62
2023-04-16T02:44:17.589Z,1.60
2023-04-16T02:45:19.871Z,1.59
2023-04-16T02:46:17.575Z,1.63
2023-04-16T02:47:17.646Z,1.55
2023-04-16T02:48:17.563Z,1.55
2023-04-16T02:49:17.530Z,1.48
2023-04-16T02:50:17.541Z,1.52
2023-04-16T02:51:17.514Z,1.44
2023-04-16T02:52:17.498Z,1.42
2023-04-16T02:53:17.496Z,1.50
2023-04-16T02:54:17.484Z,1.45
2023-04-16T02:55:17.496Z,1.41
2023-04-16T02:56:17.450Z,1.41
2023-04-16T02:57:17.483Z,1.37
2023-04-16T02:58:17.427Z,1.40
2023-04-16T02:59:17.419Z,1.41
2023-04-16T03:00:17.417Z,1.27
2023-04-16T03:01:17.415Z,1.29
2023-04-16T03:02:17.421Z,1.33
2023-04-16T03:03:17.401Z,1.34
2023-04-16T03:04:17.426Z,1.32
2023-04-16T03:05:17.356Z,1.27
2023-04-16T03:06:17.371Z,1.23
2023-04-16T03:07:17.328Z,1.27
2023-04-16T03:08:17.339Z,1.30
2023-04-16T03:09:17.350Z,1.30
2023-04-16T03:10:17.296Z,1.33
2023-04-16T03:11:17.292Z,1.37
2023-04-16T03:12:17.302Z,1.29
2023-04-16T03:13:17.294Z,1.29
2023-04-16T03:14:17.249Z,1.20
2023-04-16T03:15:17.238Z,1.20
2023-04-16T03:16:17.320Z,1.22
2023-04-16T03:17:17.232Z,1.20
2023-04-16T03:18:17.228Z,1.23
2023-04-16T03:19:17.194Z,1.18
2023-04-16T03:20:17.216Z,1.11
2023-04-16T03:21:17.203Z,1.23
2023-04-16T03:22:17.157Z,1.18
2023-04-16T03:23:17.172Z,1.18
2023-04-16T03:24:17.169Z,1.16
2023-04-16T03:25:17.127Z,1.11
2023-04-16T03:26:17.116Z,1.08
2023-04-16T03:27:17.107Z,1.12
2023-04-16T03:28:17.090Z,1.18
2023-04-16T03:29:17.119Z,1.18
2023-04-16T03:30:17.120Z,1.14
2023-04-16T03:31:17.115Z,1.14
2023-04-16T03:32:17.062Z,1.23
2023-04-16T03:33:17.057Z,1.24
2023-04-16T03:34:17.020Z,1.26
2023-04-16T03:35:17.010Z,1.24
2023-04-16T03:36:17.069Z,1.26
2023-04-16T03:37:17.013Z,1.26
2023-04-16T03:38:16.978Z,1.20
2023-04-16T03:39:16.981Z,1.29
2023-04-16T03:40:17.010Z,1.29
2023-04-16T03:41:16.960Z,1.29
2023-04-16T03:42:16.963Z,1.24
2023-04-16T03:43:16.928Z,1.22
2023-04-16T03:44:16.909Z,1.29
2023-04-16T03:45:16.917Z,1.27
2023-04-16T03:46:16.928Z,1.27
2023-04-16T03:47:16.931Z,1.32
2023-04-16T03:48:16.882Z,1.34
2023-04-16T03:49:16.857Z,1.20
2023-04-16T03:50:16.840Z,1.32
2023-04-16T03:51:16.832Z,1.34
2023-04-16T03:52:16.828Z,1.22
2023-04-16T03:53:16.860Z,1.23
2023-04-16T03:54:16.796Z,1.27
2023-04-16T03:55:16.812Z,1.33
2023-04-16T03:56:16.774Z,1.36
2023-04-16T03:57:16.767Z,1.29
2023-04-16T03:58:16.771Z,1.30
2023-04-16T03:59:16.755Z,1.22
2023-04-16T04:00:16.728Z,1.20
2023-04-16T04:01:16.739Z,1.30
2023-04-16T04:02:16.860Z,1.23
2023-04-16T04:03:17.031Z,1.27
2023-04-16T04:04:16.756Z,1.20
2023-04-16T04:05:16.686Z,1.26
2023-04-16T04:06:16.666Z,1.32
2023-04-16T04:07:16.656Z,1.34
2023-04-16T04:08:16.656Z,1.26
2023-04-16T04:09:16.625Z,1.24
2023-04-16T04:10:16.615Z,1.29
2023-04-16T04:11:16.622Z,1.34
2023-04-16T04:12:16.593Z,1.33
2023-04-16T04:13:16.604Z,1.36
2023-04-16T04:14:16.575Z,1.24
2023-04-16T04:15:16.592Z,1.33
2023-04-16T04:16:16.568Z,1.32
2023-04-16T04:17:16.576Z,1.33
2023-04-16T04:18:16.564Z,1.23
2023-04-16T04:19:16.517Z,1.36
2023-04-16T04:20:16.511Z,1.27
2023-04-16T04:21:16.496Z,1.40
2023-04-16T04:22:16.721Z,1.32
2023-04-16T04:23:16.505Z,1.33
2023-04-16T04:24:16.468Z,1.47
2023-04-16T04:25:16.480Z,1.33
2023-04-16T04:26:16.484Z,1.29
2023-04-16T04:27:16.430Z,1.40
2023-04-16T04:28:16.440Z,1.36
2023-04-16T04:29:16.416Z,1.23
2023-04-16T04:30:16.393Z,1.20
2023-04-16T04:31:16.386Z,1.20
2023-04-16T04:32:16.397Z,1.22
2023-04-16T04:33:16.375Z,1.26
2023-04-16T04:34:16.342Z,1.12
2023-04-16T04:35:16.352Z,1.24
2023-04-16T04:36:16.317Z,1.27
2023-04-16T04:37:16.357Z,1.24
2023-04-16T04:38:16.366Z,1.18
2023-04-16T04:39:16.328Z,1.23
2023-04-16T04:40:16.282Z,1.24
2023-04-16T04:41:16.280Z,1.24
2023-04-16T04:42:16.257Z,1.24
2023-04-16T04:43:16.250Z,1.26
2023-04-16T04:44:16.256Z,1.27
2023-04-16T04:45:16.237Z,1.24
2023-04-16T04:46:16.242Z,1.24
2023-04-16T04:47:16.228Z,1.20
2023-04-16T04:48:16.189Z,1.20
2023-04-16T04:49:16.229Z,1.33
2023-04-16T04:50:16.158Z,1.32
2023-04-16T04:51:16.156Z,1.30
2023-04-16T04:52:16.147Z,1.26
2023-04-16T04:53:16.145Z,1.33
2023-04-16T04:54:16.117Z,1.40
2023-04-16T04:55:16.177Z,1.37
2023-04-16T04:56:16.096Z,1.37
2023-04-16T04:57:16.092Z,1.36
2023-04-16T04:58:16.098Z,1.40
2023-04-16T04:59:16.084Z,1.44
2023-04-16T05:00:16.055Z,1.62
2023-04-16T05:01:16.069Z,1.54
2023-04-16T05:02:16.181Z,1.54
2023-04-16T05:03:16.093Z,1.60
2023-04-16T05:04:16.026Z,1.60
2023-04-16T05:05:16.085Z,1.69
2023-04-16T05:06:15.986Z,1.69
2023-04-16T05:07:15.996Z,1.72
2023-04-16T05:08:16.000Z,1.81
2023-04-16T05:09:15.954Z,1.73
2023-04-16T05:10:15.936Z,1.80
2023-04-16T05:11:15.937Z,1.90
2023-04-16T05:12:15.912Z,1.90
2023-04-16T05:13:15.920Z,1.99
2023-04-16T05:14:15.889Z,2.02
2023-04-16T05:15:15.888Z,1.99
2023-04-16T05:16:15.891Z,2.03
2023-04-16T05:17:15.912Z,2.07
2023-04-16T05:18:15.883Z,2.10
2023-04-16T05:19:15.839Z,2.03
2023-04-16T05:20:15.823Z,2.12
2023-04-16T05:21:15.836Z,2.17
2023-04-16T05:22:15.799Z,2.18
2023-04-16T05:23:15.813Z,2.27
2023-04-16T05:24:15.801Z,2.25
2023-04-16T05:25:15.770Z,2.39
2023-04-16T05:26:15.795Z,2.41
2023-04-16T05:27:15.776Z,2.43
2023-04-16T05:28:15.784Z,2.45
2023-04-16T05:29:15.741Z,2.60
2023-04-16T05:30:15.713Z,2.56
2023-04-16T05:31:15.809Z,2.48
2023-04-16T05:32:15.711Z,2.60
2023-04-16T05:33:15.695Z,2.64
2023-04-16T05:34:15.680Z,2.75
2023-04-16T05:35:17.446Z,2.71
2023-04-16T05:36:15.645Z,2.71
2023-04-16T05:37:15.677Z,2.79
2023-04-16T05:38:15.628Z,2.84
2023-04-16T05:39:15.611Z,2.87
2023-04-16T05:40:15.606Z,2.89
2023-04-16T05:41:15.616Z,2.84
2023-04-16T05:42:15.576Z,2.96
2023-04-16T05:43:15.572Z,2.96
2023-04-16T05:44:15.557Z,3.02
2023-04-16T05:45:15.570Z,2.97
2023-04-16T05:46:15.565Z,3.06
2023-04-16T05:47:15.554Z,3.08
2023-04-16T05:48:15.507Z,3.11
2023-04-16T05:49:15.499Z,3.17
2023-04-16T05:50:15.482Z,3.29
2023-04-16T05:51:15.499Z,3.28
2023-04-16T05:52:15.464Z,3.31
2023-04-16T05:53:15.486Z,3.39
2023-04-16T05:54:15.457Z,3.43
2023-04-16T05:55:15.432Z,3.51
2023-04-16T05:56:15.413Z,3.48
2023-04-16T05:57:16.138Z,3.43
2023-04-16T05:58:15.400Z,3.50
2023-04-16T05:59:15.410Z,3.61
2023-04-16T06:00:15.510Z,3.61
2023-04-16T06:01:15.366Z,3.61
2023-04-16T06:02:15.401Z,3.58
2023-04-16T06:03:15.509Z,3.60
2023-04-16T06:04:15.394Z,3.58
2023-04-16T06:05:15.359Z,3.66
2023-04-16T06:06:15.323Z,3.72
2023-04-16T06:07:15.294Z,3.79
2023-04-16T06:08:15.280Z,3.86
2023-04-16T06:09:15.302Z,3.97
2023-04-16T06:10:15.255Z,4.18
2023-04-16T06:11:15.284Z,4.44
2023-04-16T06:12:15.233Z,4.92
2023-04-16T06:13:15.231Z,5.27
2023-04-16T06:14:15.233Z,5.90
2023-04-16T06:15:15.235Z,6.38
2023-04-16T06:16:15.253Z,6.98
2023-04-16T06:17:15.211Z,7.61
2023-04-16T06:18:15.262Z,8.10
2023-04-16T06:19:15.332Z,8.76
2023-04-16T06:20:15.179Z,9.05
2023-04-16T06:21:15.133Z,9.32
2023-04-16T06:22:15.121Z,9.66
2023-04-16T06:23:15.420Z,9.76
2023-04-16T06:24:15.096Z,9.72
2023-04-16T06:25:16.941Z,9.72
2023-04-16T06:26:15.070Z,9.66
2023-04-16T06:27:15.115Z,9.53
2023-04-16T06:28:15.065Z,9.40
2023-04-16T06:29:15.070Z,9.33
2023-04-16T06:30:15.048Z,9.35
2023-04-16T06:31:15.035Z,9.23
2023-04-16T06:32:15.043Z,9.36
2023-04-16T06:33:15.009Z,9.69
2023-04-16T06:34:15.020Z,10.17
2023-04-16T06:35:14.979Z,10.68
2023-04-16T06:36:14.980Z,11.22
2023-04-16T06:37:14.960Z,11.70
2023-04-16T06:38:14.948Z,11.72
2023-04-16T06:39:14.954Z,11.76
2023-04-16T06:40:14.950Z,11.78
2023-04-16T06:41:14.945Z,11.72
2023-04-16T06:42:14.892Z,11.85
2023-04-16T06:43:14.888Z,12.10
2023-04-16T06:44:14.880Z,12.39
2023-04-16T06:45:14.879Z,12.78
2023-04-16T06:46:14.886Z,13.07
2023-04-16T06:47:14.849Z,13.33
2023-04-16T06:48:14.837Z,13.41
2023-04-16T06:49:14.815Z,13.64
2023-04-16T06:50:14.819Z,13.78
2023-04-16T06:51:14.797Z,13.20
2023-04-16T06:52:14.802Z,12.85
2023-04-16T06:53:14.769Z,12.20
2023-04-16T06:54:14.760Z,11.72
2023-04-16T06:55:14.784Z,11.60
2023-04-16T06:56:22.518Z,11.37
2023-04-16T06:57:14.761Z,10.97
2023-04-16T06:58:22.420Z,10.53
2023-04-16T06:59:22.426Z,10.32
2023-04-16T07:00:22.524Z,10.32
2023-04-16T07:01:24.499Z,10.42
2023-04-16T07:02:22.852Z,10.66
2023-04-16T07:03:22.813Z,10.88
2023-04-16T07:04:22.434Z,11.03
2023-04-16T07:05:14.663Z,11.11
2023-04-16T07:07:43.114Z,11.39
2023-04-16T07:08:43.128Z,11.54
2023-04-16T07:09:43.029Z,11.54
2023-04-16T07:10:50.980Z,11.61
2023-04-16T07:11:43.023Z,11.73
2023-04-16T07:12:43.003Z,11.67
2023-04-16T07:13:43.096Z,11.64
2023-04-16T07:14:42.965Z,11.57
2023-04-16T07:15:42.982Z,11.61
2023-04-16T07:16:43.185Z,11.64
2023-04-16T07:17:43.007Z,11.65
2023-04-16T07:18:43.049Z,11.61
2023-04-16T07:19:42.924Z,11.55
2023-04-16T07:20:42.949Z,11.51
2023-04-16T07:21:42.914Z,11.46
2023-04-16T07:22:43.556Z,11.36
2023-04-16T07:23:42.906Z,11.39
2023-04-16T07:24:42.872Z,11.39
2023-04-16T07:25:42.868Z,11.37
2023-04-16T07:26:42.876Z,11.39
2023-04-16T07:27:42.864Z,11.43
2023-04-16T07:28:42.816Z,11.55
2023-04-16T07:29:42.816Z,11.51
2023-04-16T07:30:42.794Z,11.54
2023-04-16T07:31:42.833Z,11.73
2023-04-16T07:32:42.841Z,11.61
2023-04-16T07:33:42.766Z,11.72
2023-04-16T07:34:42.792Z,11.76
2023-04-16T07:35:42.741Z,11.58
2023-04-16T07:36:42.748Z,11.64
2023-04-16T07:37:42.718Z,11.61
2023-04-16T07:38:42.718Z,11.64
2023-04-16T07:39:42.724Z,11.78
2023-04-16T07:40:42.706Z,11.78
2023-04-16T07:41:42.697Z,11.72
2023-04-16T07:42:42.662Z,11.69
2023-04-16T07:43:42.671Z,11.79
2023-04-16T07:44:42.658Z,11.85
2023-04-16T07:45:42.652Z,11.94
2023-04-16T07:46:46.807Z,11.91
2023-04-16T07:47:42.650Z,12.02
2023-04-16T07:48:42.597Z,11.96
2023-04-16T07:49:42.622Z,11.82
2023-04-16T07:50:42.574Z,11.86
2023-04-16T07:51:42.593Z,11.86
2023-04-16T07:52:42.611Z,11.70
2023-04-16T07:53:42.576Z,11.70
2023-04-16T07:54:42.550Z,11.73
2023-04-16T07:55:42.522Z,11.76
2023-04-16T07:56:42.532Z,11.88
2023-04-16T07:57:42.500Z,11.90
2023-04-16T07:58:42.501Z,11.76
2023-04-16T07:59:42.520Z,11.90
2023-04-16T08:00:42.465Z,11.83
2023-04-16T08:01:42.469Z,11.88
2023-04-16T08:02:42.594Z,11.96
2023-04-16T08:03:42.599Z,11.98
2023-04-16T08:04:42.719Z,12.12
2023-04-16T08:05:42.416Z,12.10
2023-04-16T08:06:42.399Z,12.14
2023-04-16T08:07:42.388Z,12.27
2023-04-16T08:08:42.406Z,12.19
2023-04-16T08:09:42.380Z,12.16
2023-04-16T08:10:42.416Z,12.17
2023-04-16T08:11:42.343Z,12.20
2023-04-16T08:12:42.329Z,12.29
2023-04-16T08:13:42.364Z,12.19
2023-04-16T08:14:42.342Z,12.21
2023-04-16T08:15:42.399Z,12.13
2023-04-16T08:16:42.297Z,11.94
2023-04-16T08:17:42.344Z,11.75
2023-04-16T08:18:42.271Z,11.70
2023-04-16T08:19:42.256Z,11.67
2023-04-16T08:20:43.438Z,11.55
2023-04-16T08:21:42.238Z,11.60
2023-04-16T08:22:42.232Z,11.46
2023-04-16T08:23:42.208Z,11.46
2023-04-16T08:24:42.216Z,11.40
2023-04-16T08:25:42.223Z,11.36
2023-04-16T08:26:42.180Z,11.37
2023-04-16T08:27:42.175Z,11.39
2023-04-16T08:28:42.166Z,11.33
2023-04-16T08:29:42.168Z,11.27
2023-04-16T08:30:42.136Z,11.24
2023-04-16T08:31:42.181Z,11.25
2023-04-16T08:32:42.180Z,11.24
2023-04-16T08:33:42.104Z,11.36
2023-04-16T08:34:42.138Z,11.27
2023-04-16T08:35:42.079Z,11.32
2023-04-16T08:36:42.068Z,11.18
2023-04-16T08:37:42.064Z,11.24
2023-04-16T08:38:42.038Z,11.18
2023-04-16T08:39:42.055Z,11.21
2023-04-16T08:40:42.025Z,11.04
2023-04-16T08:41:42.045Z,11.04
2023-04-16T08:42:41.996Z,11.04
2023-04-16T08:43:41.983Z,11.03
2023-04-16T08:44:41.993Z,10.97
2023-04-16T08:45:41.982Z,10.89
2023-04-16T08:46:42.009Z,10.86
2023-04-16T08:47:42.007Z,10.76
2023-04-16T08:48:41.955Z,10.86
2023-04-16T08:49:41.935Z,10.86
2023-04-16T08:50:41.912Z,10.81
2023-04-16T08:51:41.916Z,10.86
2023-04-16T08:52:41.897Z,10.73
2023-04-16T08:53:41.872Z,10.78
2023-04-16T08:54:41.897Z,10.74
2023-04-16T08:55:41.851Z,10.84
2023-04-16T08:56:43.063Z,10.78
2023-04-16T08:57:41.825Z,10.88
2023-04-16T08:58:41.844Z,10.97
2023-04-16T08:59:41.807Z,11.02
2023-04-16T09:00:41.808Z,11.14
2023-04-16T09:01:41.804Z,11.04
2023-04-16T09:02:41.902Z,11.11
2023-04-16T09:03:41.880Z,11.09
2023-04-16T09:04:41.838Z,11.11
2023-04-16T09:05:41.747Z,11.11
2023-04-16T09:06:41.747Z,11.14
2023-04-16T09:07:41.709Z,11.18
2023-04-16T09:08:41.730Z,11.29
2023-04-16T09:09:41.692Z,11.24
2023-04-16T09:10:41.694Z,11.28
2023-04-16T09:11:41.684Z,11.24
2023-04-16T09:12:41.665Z,11.25
2023-04-16T09:13:42.643Z,11.27
2023-04-16T09:14:41.632Z,11.24
2023-04-16T09:15:41.628Z,11.15
2023-04-16T09:16:41.644Z,11.14
2023-04-16T09:17:41.638Z,11.24
2023-04-16T09:18:41.594Z,11.33
2023-04-16T09:19:41.682Z,11.29
2023-04-16T09:20:41.564Z,11.32
2023-04-16T09:21:41.580Z,11.29
2023-04-16T09:22:41.556Z,11.29
2023-04-16T09:23:41.536Z,11.33
2023-04-16T09:24:41.548Z,11.27
2023-04-16T09:25:41.636Z,11.37
2023-04-16T09:26:41.535Z,11.36
2023-04-16T09:27:41.488Z,11.22
2023-04-16T09:28:41.512Z,11.43
2023-04-16T09:29:41.484Z,11.49
2023-04-16T09:30:41.455Z,11.55
2023-04-16T09:31:41.623Z,11.72
2023-04-16T09:32:41.448Z,11.69
2023-04-16T09:33:41.425Z,11.82
2023-04-16T09:34:41.437Z,11.76
2023-04-16T09:35:41.417Z,11.76
2023-04-16T09:36:41.405Z,11.88
2023-04-16T09:37:41.383Z,11.88
2023-04-16T09:38:41.370Z,11.94
2023-04-16T09:39:41.378Z,11.99
2023-04-16T09:40:42.432Z,12.12
2023-04-16T09:41:41.367Z,12.10
2023-04-16T09:42:41.405Z,12.17
2023-04-16T09:43:41.325Z,12.17
2023-04-16T09:44:41.322Z,12.16
2023-04-16T09:45:41.312Z,12.13
2023-04-16T09:46:41.316Z,12.16
2023-04-16T09:47:41.381Z,11.99
2023-04-16T09:48:41.260Z,11.94
2023-04-16T09:49:41.271Z,11.94
2023-04-16T09:50:41.250Z,12.02
2023-04-16T09:51:41.278Z,12.13
2023-04-16T09:52:41.217Z,12.13
2023-04-16T09:53:43.521Z,12.14
2023-04-16T09:54:41.194Z,12.13
2023-04-16T09:55:42.246Z,12.14
2023-04-16T09:56:41.213Z,12.21
2023-04-16T09:57:41.187Z,12.28
2023-04-16T09:58:41.162Z,12.28
2023-04-16T09:59:41.141Z,12.46
2023-04-16T10:00:43.458Z,12.60
2023-04-16T10:01:41.199Z,12.72
2023-04-16T10:02:41.256Z,12.68
2023-04-16T10:03:41.419Z,12.75
2023-04-16T10:04:41.120Z,12.87
2023-04-16T10:05:41.103Z,12.90
2023-04-16T10:06:41.095Z,12.86
2023-04-16T10:07:41.092Z,12.97
2023-04-16T10:08:41.040Z,12.97
2023-04-16T10:09:41.037Z,13.01
2023-04-16T10:10:41.071Z,12.97
2023-04-16T10:11:41.021Z,12.86
2023-04-16T10:12:41.017Z,12.86
2023-04-16T10:13:41.025Z,12.72
2023-04-16T10:14:40.976Z,12.71
2023-04-16T10:15:40.963Z,12.75
2023-04-16T10:16:41.183Z,12.74
2023-04-16T10:17:40.960Z,12.60
2023-04-16T10:18:40.969Z,12.41
2023-04-16T10:19:40.920Z,12.39
2023-04-16T10:20:40.941Z,12.32
2023-04-16T10:21:40.898Z,12.23
2023-04-16T10:22:40.890Z,12.39
2023-04-16T10:23:40.912Z,12.49
2023-04-16T10:24:40.902Z,12.42
2023-04-16T10:25:40.872Z,12.53
2023-04-16T10:26:40.864Z,12.56
2023-04-16T10:27:40.844Z,12.52
2023-04-16T10:28:40.847Z,12.53
2023-04-16T10:29:40.816Z,12.59
2023-04-16T10:30:40.836Z,12.54
2023-04-16T10:31:40.788Z,12.52
2023-04-16T10:32:40.827Z,12.35
2023-04-16T10:33:40.763Z,12.31
2023-04-16T10:34:40.751Z,12.17
2023-04-16T10:35:40.747Z,12.16
2023-04-16T10:36:40.759Z,12.13
2023-04-16T10:37:40.715Z,12.16
2023-04-16T10:38:40.724Z,12.19
2023-04-16T10:39:40.717Z,12.28
2023-04-16T10:40:40.688Z,12.29
2023-04-16T10:41:40.695Z,12.45
2023-04-16T10:42:40.679Z,12.38
2023-04-16T10:43:40.667Z,12.45
2023-04-16T10:44:43.410Z,12.53
2023-04-16T10:45:40.627Z,12.53
2023-04-16T10:46:40.726Z,12.53
2023-04-16T10:47:40.670Z,12.56
2023-04-16T10:48:49.706Z,12.60
2023-04-16T10:49:41.581Z,12.65
2023-04-16T10:50:40.582Z,12.53
2023-04-16T10:51:40.588Z,12.50
2023-04-16T10:52:40.578Z,12.41
2023-04-16T10:53:40.538Z,12.39
2023-04-16T10:54:40.541Z,12.53
2023-04-16T10:55:40.524Z,12.57
2023-04-16T10:56:40.498Z,12.37
2023-04-16T10:57:40.482Z,12.42
2023-04-16T10:58:40.490Z,12.45
2023-04-16T10:59:40.477Z,12.47
2023-04-16T11:00:40.463Z,12.54
2023-04-16T11:01:40.483Z,12.62
2023-04-16T11:02:40.638Z,12.74
2023-04-16T11:03:40.556Z,12.75
2023-04-16T11:04:40.500Z,12.77
2023-04-16T11:05:40.416Z,12.68
2023-04-16T11:06:40.384Z,12.78
2023-04-16T11:07:40.402Z,12.72
2023-04-16T11:08:53.380Z,12.77
2023-04-16T11:09:41.371Z,12.68
2023-04-16T11:10:40.340Z,12.90
2023-04-16T11:11:40.345Z,12.96
2023-04-16T11:12:40.317Z,12.93
2023-04-16T11:13:41.272Z,13.10
2023-04-16T11:14:40.313Z,13.23
2023-04-16T11:15:40.313Z,13.36
2023-04-16T11:16:40.267Z,13.41
2023-04-16T11:17:40.317Z,13.55
2023-04-16T11:18:43.174Z,13.52
2023-04-16T11:19:41.263Z,13.42
2023-04-16T11:20:40.243Z,13.28
2023-04-16T11:21:40.241Z,13.19
2023-04-16T11:22:40.200Z,13.12
2023-04-16T11:23:40.197Z,13.10
2023-04-16T11:24:40.175Z,13.11
2023-04-16T11:25:40.191Z,13.11
2023-04-16T11:26:41.279Z,13.10
2023-04-16T11:27:40.167Z,13.17
2023-04-16T11:28:40.141Z,13.26
2023-04-16T11:29:40.135Z,13.32
2023-04-16T11:30:40.151Z,13.41
2023-04-16T11:31:40.131Z,13.55
2023-04-16T11:32:40.110Z,13.66
2023-04-16T11:33:40.075Z,13.71
2023-04-16T11:34:40.071Z,13.62
2023-04-16T11:35:40.068Z,13.69
2023-04-16T11:36:40.055Z,13.63
2023-04-16T11:37:40.090Z,13.82
2023-04-16T11:38:40.024Z,13.87
2023-04-16T11:39:40.019Z,13.95
2023-04-16T11:40:40.000Z,14.00
2023-04-16T11:41:40.032Z,13.89
2023-04-16T11:42:40.073Z,13.77
2023-04-16T11:43:39.995Z,13.77
2023-04-16T11:44:39.947Z,13.77
2023-04-16T11:45:39.977Z,13.78
2023-04-16T11:46:40.020Z,13.75
2023-04-16T11:47:39.944Z,13.70
2023-04-16T11:48:39.898Z,13.78
2023-04-16T11:49:39.898Z,13.79
2023-04-16T11:50:39.897Z,13.88
2023-04-16T11:51:39.869Z,13.84
2023-04-16T11:52:39.878Z,13.87
2023-04-16T11:53:39.841Z,13.85
2023-04-16T11:54:39.830Z,13.92
2023-04-16T11:55:39.850Z,14.04
2023-04-16T11:56:39.826Z,14.10
2023-04-16T11:57:39.797Z,14.37
2023-04-16T11:58:42.493Z,14.32
2023-04-16T12:00:01.725Z,14.39
2023-04-16T12:00:40.781Z,14.46
2023-04-16T12:01:39.820Z,14.25
2023-04-16T12:02:40.908Z,14.28
2023-04-16T12:03:40.270Z,14.40
2023-04-16T12:04:39.839Z,14.32
2023-04-16T12:05:39.703Z,14.40
2023-04-16T12:06:39.710Z,14.39
2023-04-16T12:07:39.697Z,14.58
2023-04-16T12:08:39.676Z,14.60
2023-04-16T12:09:40.910Z,14.68
2023-04-16T12:10:39.651Z,14.80
2023-04-16T12:11:39.636Z,14.88
2023-04-16T12:12:39.655Z,14.96
2023-04-16T12:13:39.666Z,15.16
2023-04-16T12:14:39.603Z,15.14
2023-04-16T12:15:39.680Z,15.13
2023-04-16T12:16:39.620Z,15.06
2023-04-16T12:17:39.601Z,15.06
2023-04-16T12:18:39.583Z,14.80
2023-04-16T12:19:39.561Z,14.57
2023-04-16T12:20:39.539Z,14.70
2023-04-16T12:21:39.530Z,14.84
2023-04-16T12:22:39.574Z,14.89
2023-04-16T12:23:39.536Z,14.95
2023-04-16T12:24:39.491Z,15.06
2023-04-16T12:25:39.505Z,15.10
2023-04-16T12:26:39.484Z,15.01
2023-04-16T12:27:39.476Z,14.96
2023-04-16T12:28:39.454Z,14.81
2023-04-16T12:29:39.445Z,14.75
2023-04-16T12:30:39.475Z,14.62
2023-04-16T12:31:39.488Z,14.58
2023-04-16T12:32:39.461Z,14.45
2023-04-16T12:33:39.390Z,14.43
2023-04-16T12:34:48.525Z,14.52
2023-04-16T12:35:40.367Z,14.40
2023-04-16T12:36:39.384Z,14.28
2023-04-16T12:37:39.358Z,14.18
2023-04-16T12:38:39.384Z,14.06
2023-04-16T12:39:39.348Z,14.12
2023-04-16T12:40:39.318Z,14.06
2023-04-16T12:41:39.319Z,14.04
2023-04-16T12:42:39.305Z,14.04
2023-04-16T12:43:39.297Z,14.00
2023-04-16T12:44:39.320Z,14.00
2023-04-16T12:45:39.257Z,13.92
2023-04-16T12:46:39.280Z,13.79
2023-04-16T12:47:39.297Z,13.78
2023-04-16T12:48:39.238Z,13.79
2023-04-16T12:49:39.252Z,13.77
2023-04-16T12:50:39.229Z,13.79
2023-04-16T12:51:39.224Z,13.82
2023-04-16T12:52:39.179Z,13.70
2023-04-16T12:53:39.169Z,13.51
2023-04-16T12:54:39.162Z,13.45
2023-04-16T12:55:39.277Z,13.20
2023-04-16T12:56:39.138Z,13.36
2023-04-16T12:57:39.141Z,13.38
2023-04-16T12:58:39.113Z,13.49
2023-04-16T12:59:41.637Z,13.64
2023-04-16T13:00:39.100Z,13.70
2023-04-16T13:01:39.119Z,13.49
2023-04-16T13:02:39.216Z,13.46
2023-04-16T13:03:39.350Z,13.49
2023-04-16T13:04:39.165Z,13.48
2023-04-16T13:05:39.053Z,13.45
2023-04-16T13:06:39.060Z,13.39